sensor_id;sensor_type;location;lat;lon;timestamp;temperature;humidity
29939;DHT22;16799;50.844;5.304;2023-04-15T00:01:59;9.20;99.90
29939;DHT22;16799;50.844;5.304;2023-04-15T00:04:27;9.20;99.90
29939;DHT22;16799;50.844;5.304;2023-04-15T00:06:53;9.20;99.90
29939;DHT22;16799;50.844;5.304;2023-04-15T00:09:19;9.20;99.90
29939;DHT22;16799;50.844;5.304;2023-04-15T00:11:45;9.20;99.90
29939;DHT22;16799;50.844;5.304;2023-04-15T00:14:12;9.30;99.90
29939;DHT22;16799;50.844;5.304;2023-04-15T00:16:38;9.30;99.90
29939;DHT22;16799;50.844;5.304;2023-04-15T00:19:03;9.40;99.90
29939;DHT22;16799;50.844;5.304;2023-04-15T00:21:29;9.50;99.90
29939;DHT22;16799;50.844;5.304;2023-04-15T00:23:55;9.50;99.90
29939;DHT22;16799;50.844;5.304;2023-04-15T00:26:21;9.40;99.90
29939;DHT22;16799;50.844;5.304;2023-04-15T00:28:47;9.30;99.90
29939;DHT22;16799;50.844;5.304;2023-04-15T00:31:12;9.30;99.90
29939;DHT22;16799;50.844;5.304;2023-04-15T00:33:38;9.40;99.90
29939;DHT22;16799;50.844;5.304;2023-04-15T00:36:05;9.30;99.90
29939;DHT22;16799;50.844;5.304;2023-04-15T00:38:31;9.30;99.90
29939;DHT22;16799;50.844;5.304;2023-04-15T00:40:57;9.30;99.90
29939;DHT22;16799;50.844;5.304;2023-04-15T00:43:22;9.40;99.90
29939;DHT22;16799;50.844;5.304;2023-04-15T00:45:51;9.30;99.90
29939;DHT22;16799;50.844;5.304;2023-04-15T00:48:18;9.30;99.90
29939;DHT22;16799;50.844;5.304;2023-04-15T00:50:44;9.30;99.90
29939;DHT22;16799;50.844;5.304;2023-04-15T00:53:10;9.20;99.90
29939;DHT22;16799;50.844;5.304;2023-04-15T00:55:36;9.10;99.90
29939;DHT22;16799;50.844;5.304;2023-04-15T00:58:02;9.30;99.90
29939;DHT22;16799;50.844;5.304;2023-04-15T01:00:28;9.40;99.90
29939;DHT22;16799;50.844;5.304;2023-04-15T01:02:55;9.50;99.90
29939;DHT22;16799;50.844;5.304;2023-04-15T01:05:21;9.60;99.90
29939;DHT22;16799;50.844;5.304;2023-04-15T01:07:47;9.50;99.90
29939;DHT22;16799;50.844;5.304;2023-04-15T01:10:13;9.60;99.90
29939;DHT22;16799;50.844;5.304;2023-04-15T01:12:39;9.60;99.90
29939;DHT22;16799;50.844;5.304;2023-04-15T01:15:05;9.70;99.90
29939;DHT22;16799;50.844;5.304;2023-04-15T01:17:31;9.70;99.90
29939;DHT22;16799;50.844;5.304;2023-04-15T01:19:57;9.70;99.90
29939;DHT22;16799;50.844;5.304;2023-04-15T01:22:24;9.60;99.90
29939;DHT22;16799;50.844;5.304;2023-04-15T01:24:58;9.70;99.90
29939;DHT22;16799;50.844;5.304;2023-04-15T01:27:26;9.70;99.90
29939;DHT22;16799;50.844;5.304;2023-04-15T01:29:52;9.80;99.90
29939;DHT22;16799;50.844;5.304;2023-04-15T01:32:18;9.70;99.90
29939;DHT22;16799;50.844;5.304;2023-04-15T01:34:44;9.70;99.90
29939;DHT22;16799;50.844;5.304;2023-04-15T01:37:10;9.60;99.90
29939;DHT22;16799;50.844;5.304;2023-04-15T01:39:36;9.60;99.90
29939;DHT22;16799;50.844;5.304;2023-04-15T01:42:01;9.70;99.90
29939;DHT22;16799;50.844;5.304;2023-04-15T01:44:28;9.60;99.90
29939;DHT22;16799;50.844;5.304;2023-04-15T01:46:54;9.40;99.90
29939;DHT22;16799;50.844;5.304;2023-04-15T01:49:19;9.30;99.90
29939;DHT22;16799;50.844;5.304;2023-04-15T01:51:45;9.20;99.90
29939;DHT22;16799;50.844;5.304;2023-04-15T01:54:11;9.30;99.90
29939;DHT22;16799;50.844;5.304;2023-04-15T01:56:36;9.00;99.90
29939;DHT22;16799;50.844;5.304;2023-04-15T01:59:03;8.70;99.90
29939;DHT22;16799;50.844;5.304;2023-04-15T02:01:28;8.80;99.90
29939;DHT22;16799;50.844;5.304;2023-04-15T02:03:54;9.00;99.90
29939;DHT22;16799;50.844;5.304;2023-04-15T02:06:20;9.10;99.90
29939;DHT22;16799;50.844;5.304;2023-04-15T02:08:45;9.10;99.90
29939;DHT22;16799;50.844;5.304;2023-04-15T02:11:11;9.10;99.90
29939;DHT22;16799;50.844;5.304;2023-04-15T02:13:36;9.30;99.90
29939;DHT22;16799;50.844;5.304;2023-04-15T02:16:02;9.30;99.90
29939;DHT22;16799;50.844;5.304;2023-04-15T02:18:28;9.20;99.90
29939;DHT22;16799;50.844;5.304;2023-04-15T02:20:54;9.30;99.90
29939;DHT22;16799;50.844;5.304;2023-04-15T02:23:21;9.30;99.90
29939;DHT22;16799;50.844;5.304;2023-04-15T02:25:47;9.30;99.90
29939;DHT22;16799;50.844;5.304;2023-04-15T02:28:12;9.10;99.90
29939;DHT22;16799;50.844;5.304;2023-04-15T02:30:38;8.80;99.90
29939;DHT22;16799;50.844;5.304;2023-04-15T02:33:05;8.90;99.90
29939;DHT22;16799;50.844;5.304;2023-04-15T02:35:32;9.20;99.90
29939;DHT22;16799;50.844;5.304;2023-04-15T02:37:57;9.30;99.90
29939;DHT22;16799;50.844;5.304;2023-04-15T02:40:23;9.40;99.90
29939;DHT22;16799;50.844;5.304;2023-04-15T02:42:49;9.40;99.90
29939;DHT22;16799;50.844;5.304;2023-04-15T02:45:15;9.40;99.90
29939;DHT22;16799;50.844;5.304;2023-04-15T02:47:42;9.40;99.90
29939;DHT22;16799;50.844;5.304;2023-04-15T02:50:11;9.50;99.90
29939;DHT22;16799;50.844;5.304;2023-04-15T02:52:41;9.50;99.90
29939;DHT22;16799;50.844;5.304;2023-04-15T02:55:08;9.50;99.90
29939;DHT22;16799;50.844;5.304;2023-04-15T02:57:34;9.50;99.90
29939;DHT22;16799;50.844;5.304;2023-04-15T03:00:02;9.50;99.90
29939;DHT22;16799;50.844;5.304;2023-04-15T03:02:33;9.50;99.90
29939;DHT22;16799;50.844;5.304;2023-04-15T03:04:59;9.50;99.90
29939;DHT22;16799;50.844;5.304;2023-04-15T03:07:25;9.60;99.90
29939;DHT22;16799;50.844;5.304;2023-04-15T03:09:51;9.50;99.90
29939;DHT22;16799;50.844;5.304;2023-04-15T03:12:16;9.50;99.90
29939;DHT22;16799;50.844;5.304;2023-04-15T03:14:42;9.40;99.90
29939;DHT22;16799;50.844;5.304;2023-04-15T03:17:08;9.40;99.90
29939;DHT22;16799;50.844;5.304;2023-04-15T03:19:33;9.30;99.90
29939;DHT22;16799;50.844;5.304;2023-04-15T03:21:59;9.20;99.90
29939;DHT22;16799;50.844;5.304;2023-04-15T03:24:25;9.20;99.90
29939;DHT22;16799;50.844;5.304;2023-04-15T03:26:51;9.10;99.90
29939;DHT22;16799;50.844;5.304;2023-04-15T03:29:17;9.10;99.90
29939;DHT22;16799;50.844;5.304;2023-04-15T03:31:42;9.10;99.90
29939;DHT22;16799;50.844;5.304;2023-04-15T03:34:08;9.20;99.90
29939;DHT22;16799;50.844;5.304;2023-04-15T03:36:33;9.20;99.90
29939;DHT22;16799;50.844;5.304;2023-04-15T03:38:59;9.20;99.90
29939;DHT22;16799;50.844;5.304;2023-04-15T03:41:26;9.20;99.90
29939;DHT22;16799;50.844;5.304;2023-04-15T03:43:53;9.30;99.90
29939;DHT22;16799;50.844;5.304;2023-04-15T03:46:18;9.20;99.90
29939;DHT22;16799;50.844;5.304;2023-04-15T03:48:45;9.10;99.90
29939;DHT22;16799;50.844;5.304;2023-04-15T03:51:11;9.00;99.90
29939;DHT22;16799;50.844;5.304;2023-04-15T03:53:37;9.10;99.90
29939;DHT22;16799;50.844;5.304;2023-04-15T03:56:02;9.20;99.90
29939;DHT22;16799;50.844;5.304;2023-04-15T03:58:28;9.10;99.90
29939;DHT22;16799;50.844;5.304;2023-04-15T04:00:53;9.10;99.90
29939;DHT22;16799;50.844;5.304;2023-04-15T04:03:19;9.10;99.90
29939;DHT22;16799;50.844;5.304;2023-04-15T04:05:45;9.20;99.90
29939;DHT22;16799;50.844;5.304;2023-04-15T04:08:11;9.20;99.90
29939;DHT22;16799;50.844;5.304;2023-04-15T04:10:41;9.20;99.90
29939;DHT22;16799;50.844;5.304;2023-04-15T04:13:06;9.20;99.90
29939;DHT22;16799;50.844;5.304;2023-04-15T04:15:32;9.30;99.90
29939;DHT22;16799;50.844;5.304;2023-04-15T04:17:58;9.10;99.90
29939;DHT22;16799;50.844;5.304;2023-04-15T04:20:23;9.10;99.90
29939;DHT22;16799;50.844;5.304;2023-04-15T04:22:49;9.10;99.90
29939;DHT22;16799;50.844;5.304;2023-04-15T04:25:15;9.10;99.90
29939;DHT22;16799;50.844;5.304;2023-04-15T04:27:41;9.10;99.90
29939;DHT22;16799;50.844;5.304;2023-04-15T04:30:07;9.00;99.90
29939;DHT22;16799;50.844;5.304;2023-04-15T04:32:33;9.00;99.90
29939;DHT22;16799;50.844;5.304;2023-04-15T04:34:58;9.00;99.90
29939;DHT22;16799;50.844;5.304;2023-04-15T04:37:24;9.00;99.90
29939;DHT22;16799;50.844;5.304;2023-04-15T04:39:50;9.00;99.90
29939;DHT22;16799;50.844;5.304;2023-04-15T04:42:15;9.00;99.90
29939;DHT22;16799;50.844;5.304;2023-04-15T04:44:41;9.00;99.90
29939;DHT22;16799;50.844;5.304;2023-04-15T04:47:07;9.10;99.90
29939;DHT22;16799;50.844;5.304;2023-04-15T04:49:32;9.10;99.90
29939;DHT22;16799;50.844;5.304;2023-04-15T04:51:59;9.10;99.90
29939;DHT22;16799;50.844;5.304;2023-04-15T04:54:25;9.10;99.90
29939;DHT22;16799;50.844;5.304;2023-04-15T04:56:52;9.00;99.90
29939;DHT22;16799;50.844;5.304;2023-04-15T04:59:17;8.60;99.90
29939;DHT22;16799;50.844;5.304;2023-04-15T05:01:43;8.50;99.90
29939;DHT22;16799;50.844;5.304;2023-04-15T05:04:09;8.50;99.90
29939;DHT22;16799;50.844;5.304;2023-04-15T05:06:34;8.40;99.90
29939;DHT22;16799;50.844;5.304;2023-04-15T05:09:01;8.60;99.90
29939;DHT22;16799;50.844;5.304;2023-04-15T05:11:28;8.80;99.90
29939;DHT22;16799;50.844;5.304;2023-04-15T05:13:53;8.90;99.90
29939;DHT22;16799;50.844;5.304;2023-04-15T05:16:19;9.00;99.90
29939;DHT22;16799;50.844;5.304;2023-04-15T05:18:45;9.00;99.90
29939;DHT22;16799;50.844;5.304;2023-04-15T05:21:10;9.10;99.90
29939;DHT22;16799;50.844;5.304;2023-04-15T05:23:36;9.20;99.90
29939;DHT22;16799;50.844;5.304;2023-04-15T05:26:02;9.20;99.90
29939;DHT22;16799;50.844;5.304;2023-04-15T05:28:28;9.30;99.90
29939;DHT22;16799;50.844;5.304;2023-04-15T05:30:53;9.30;99.90
29939;DHT22;16799;50.844;5.304;2023-04-15T05:33:19;9.30;99.90
29939;DHT22;16799;50.844;5.304;2023-04-15T05:35:45;9.40;99.90
29939;DHT22;16799;50.844;5.304;2023-04-15T05:38:11;9.30;99.90
29939;DHT22;16799;50.844;5.304;2023-04-15T05:40:36;9.40;99.90
29939;DHT22;16799;50.844;5.304;2023-04-15T05:43:02;9.40;99.90
29939;DHT22;16799;50.844;5.304;2023-04-15T05:45:28;9.50;99.90
29939;DHT22;16799;50.844;5.304;2023-04-15T05:47:53;9.60;99.90
29939;DHT22;16799;50.844;5.304;2023-04-15T05:50:19;9.60;99.90
29939;DHT22;16799;50.844;5.304;2023-04-15T05:52:45;9.60;99.90
29939;DHT22;16799;50.844;5.304;2023-04-15T05:55:11;9.70;99.90
29939;DHT22;16799;50.844;5.304;2023-04-15T05:57:37;9.80;99.90
29939;DHT22;16799;50.844;5.304;2023-04-15T06:00:04;9.90;99.90
29939;DHT22;16799;50.844;5.304;2023-04-15T06:02:30;10.10;99.90
29939;DHT22;16799;50.844;5.304;2023-04-15T06:04:56;10.20;99.90
29939;DHT22;16799;50.844;5.304;2023-04-15T06:07:22;10.30;99.90
29939;DHT22;16799;50.844;5.304;2023-04-15T06:09:48;10.40;99.90
29939;DHT22;16799;50.844;5.304;2023-04-15T06:12:14;10.50;99.90
29939;DHT22;16799;50.844;5.304;2023-04-15T06:14:40;10.60;99.90
29939;DHT22;16799;50.844;5.304;2023-04-15T06:17:06;10.70;99.90
29939;DHT22;16799;50.844;5.304;2023-04-15T06:19:32;10.90;99.90
29939;DHT22;16799;50.844;5.304;2023-04-15T06:21:58;10.90;99.90
29939;DHT22;16799;50.844;5.304;2023-04-15T06:24:24;10.90;99.90
29939;DHT22;16799;50.844;5.304;2023-04-15T06:26:50;10.90;99.90
29939;DHT22;16799;50.844;5.304;2023-04-15T06:29:15;10.90;99.90
29939;DHT22;16799;50.844;5.304;2023-04-15T06:31:41;10.90;99.90
29939;DHT22;16799;50.844;5.304;2023-04-15T06:34:06;10.90;99.90
29939;DHT22;16799;50.844;5.304;2023-04-15T06:36:32;10.90;99.90
29939;DHT22;16799;50.844;5.304;2023-04-15T06:38:58;11.00;99.90
29939;DHT22;16799;50.844;5.304;2023-04-15T06:41:24;11.00;99.90
29939;DHT22;16799;50.844;5.304;2023-04-15T06:43:50;10.90;99.90
29939;DHT22;16799;50.844;5.304;2023-04-15T06:46:15;11.00;99.90
29939;DHT22;16799;50.844;5.304;2023-04-15T06:48:41;10.90;99.90
29939;DHT22;16799;50.844;5.304;2023-04-15T06:51:07;10.90;99.90
29939;DHT22;16799;50.844;5.304;2023-04-15T06:53:32;11.00;99.90
29939;DHT22;16799;50.844;5.304;2023-04-15T06:55:59;10.90;99.90
29939;DHT22;16799;50.844;5.304;2023-04-15T06:58:25;10.90;99.90
29939;DHT22;16799;50.844;5.304;2023-04-15T07:00:51;11.00;99.90
29939;DHT22;16799;50.844;5.304;2023-04-15T07:03:17;11.10;99.90
29939;DHT22;16799;50.844;5.304;2023-04-15T07:05:43;11.00;99.90
29939;DHT22;16799;50.844;5.304;2023-04-15T07:08:09;11.00;99.90
29939;DHT22;16799;50.844;5.304;2023-04-15T07:10:35;11.20;99.90
29939;DHT22;16799;50.844;5.304;2023-04-15T07:13:01;11.10;99.90
29939;DHT22;16799;50.844;5.304;2023-04-15T07:15:27;11.10;99.90
29939;DHT22;16799;50.844;5.304;2023-04-15T07:17:53;11.30;99.90
29939;DHT22;16799;50.844;5.304;2023-04-15T07:20:18;11.50;99.90
29939;DHT22;16799;50.844;5.304;2023-04-15T07:22:44;11.70;99.90
29939;DHT22;16799;50.844;5.304;2023-04-15T07:25:10;12.00;99.90
29939;DHT22;16799;50.844;5.304;2023-04-15T07:27:36;12.10;99.80
29939;DHT22;16799;50.844;5.304;2023-04-15T07:30:01;12.30;99.90
29939;DHT22;16799;50.844;5.304;2023-04-15T07:32:27;12.30;99.40
29939;DHT22;16799;50.844;5.304;2023-04-15T07:34:53;12.30;98.00
29939;DHT22;16799;50.844;5.304;2023-04-15T07:37:18;12.50;99.90
29939;DHT22;16799;50.844;5.304;2023-04-15T07:39:44;12.70;99.90
29939;DHT22;16799;50.844;5.304;2023-04-15T07:42:10;12.70;96.60
29939;DHT22;16799;50.844;5.304;2023-04-15T07:44:35;12.90;98.00
29939;DHT22;16799;50.844;5.304;2023-04-15T07:47:02;13.10;98.20
29939;DHT22;16799;50.844;5.304;2023-04-15T07:49:28;13.20;97.30
29939;DHT22;16799;50.844;5.304;2023-04-15T07:51:54;13.30;95.80
29939;DHT22;16799;50.844;5.304;2023-04-15T07:54:22;13.50;96.80
29939;DHT22;16799;50.844;5.304;2023-04-15T07:56:47;13.50;93.60
29939;DHT22;16799;50.844;5.304;2023-04-15T07:59:14;13.70;94.60
29939;DHT22;16799;50.844;5.304;2023-04-15T08:01:42;13.50;93.10
29939;DHT22;16799;50.844;5.304;2023-04-15T08:04:08;13.40;94.10
29939;DHT22;16799;50.844;5.304;2023-04-15T08:06:34;13.50;92.80
29939;DHT22;16799;50.844;5.304;2023-04-15T08:09:01;13.50;92.20
29939;DHT22;16799;50.844;5.304;2023-04-15T08:11:26;13.50;93.80
29939;DHT22;16799;50.844;5.304;2023-04-15T08:13:52;13.70;93.90
29939;DHT22;16799;50.844;5.304;2023-04-15T08:16:23;13.80;93.30
29939;DHT22;16799;50.844;5.304;2023-04-15T08:18:50;14.00;92.60
29939;DHT22;16799;50.844;5.304;2023-04-15T08:21:17;13.80;92.00
29939;DHT22;16799;50.844;5.304;2023-04-15T08:23:44;14.00;93.60
29939;DHT22;16799;50.844;5.304;2023-04-15T08:26:10;14.10;91.20
29939;DHT22;16799;50.844;5.304;2023-04-15T08:28:38;14.30;90.90
29939;DHT22;16799;50.844;5.304;2023-04-15T08:31:04;14.10;91.60
29939;DHT22;16799;50.844;5.304;2023-04-15T08:33:30;14.10;91.60
29939;DHT22;16799;50.844;5.304;2023-04-15T08:35:56;14.10;93.10
29939;DHT22;16799;50.844;5.304;2023-04-15T08:38:22;14.10;92.60
29939;DHT22;16799;50.844;5.304;2023-04-15T08:40:48;14.20;91.20
29939;DHT22;16799;50.844;5.304;2023-04-15T08:43:26;14.30;92.20
29939;DHT22;16799;50.844;5.304;2023-04-15T08:45:53;14.40;91.40
29939;DHT22;16799;50.844;5.304;2023-04-15T08:48:20;14.40;91.20
29939;DHT22;16799;50.844;5.304;2023-04-15T08:50:46;14.30;93.40
29939;DHT22;16799;50.844;5.304;2023-04-15T08:53:14;14.60;91.70
29939;DHT22;16799;50.844;5.304;2023-04-15T08:55:44;14.70;92.50
29939;DHT22;16799;50.844;5.304;2023-04-15T08:58:11;14.80;91.60
29939;DHT22;16799;50.844;5.304;2023-04-15T09:00:37;14.80;93.90
29939;DHT22;16799;50.844;5.304;2023-04-15T09:03:07;14.90;94.20
29939;DHT22;16799;50.844;5.304;2023-04-15T09:05:34;14.90;92.60
29939;DHT22;16799;50.844;5.304;2023-04-15T09:08:00;14.70;92.30
29939;DHT22;16799;50.844;5.304;2023-04-15T09:10:27;14.80;91.60
29939;DHT22;16799;50.844;5.304;2023-04-15T09:12:53;14.90;91.60
29939;DHT22;16799;50.844;5.304;2023-04-15T09:15:19;15.00;92.60
29939;DHT22;16799;50.844;5.304;2023-04-15T09:17:45;15.20;93.80
29939;DHT22;16799;50.844;5.304;2023-04-15T09:20:13;15.20;92.10
29939;DHT22;16799;50.844;5.304;2023-04-15T09:22:40;15.30;93.60
29939;DHT22;16799;50.844;5.304;2023-04-15T09:25:25;15.40;91.40
29939;DHT22;16799;50.844;5.304;2023-04-15T09:27:59;15.40;92.30
29939;DHT22;16799;50.844;5.304;2023-04-15T09:30:27;15.70;90.60
29939;DHT22;16799;50.844;5.304;2023-04-15T09:32:58;15.30;90.50
29939;DHT22;16799;50.844;5.304;2023-04-15T09:35:25;15.50;91.70
29939;DHT22;16799;50.844;5.304;2023-04-15T09:37:53;15.60;88.60
29939;DHT22;16799;50.844;5.304;2023-04-15T09:40:36;15.60;87.50
29939;DHT22;16799;50.844;5.304;2023-04-15T09:43:03;15.60;88.10
29939;DHT22;16799;50.844;5.304;2023-04-15T09:45:30;15.80;88.80
29939;DHT22;16799;50.844;5.304;2023-04-15T09:47:58;15.90;88.10
29939;DHT22;16799;50.844;5.304;2023-04-15T09:50:27;16.10;85.30
29939;DHT22;16799;50.844;5.304;2023-04-15T09:52:54;15.80;78.30
29939;DHT22;16799;50.844;5.304;2023-04-15T09:55:20;15.80;81.30
29939;DHT22;16799;50.844;5.304;2023-04-15T09:57:46;15.90;86.90
29939;DHT22;16799;50.844;5.304;2023-04-15T10:00:12;16.00;87.20
29939;DHT22;16799;50.844;5.304;2023-04-15T10:02:41;16.20;84.90
29939;DHT22;16799;50.844;5.304;2023-04-15T10:05:10;16.30;85.00
29939;DHT22;16799;50.844;5.304;2023-04-15T10:07:38;16.50;84.80
29939;DHT22;16799;50.844;5.304;2023-04-15T10:10:06;16.50;81.20
29939;DHT22;16799;50.844;5.304;2023-04-15T10:12:32;16.60;86.80
29939;DHT22;16799;50.844;5.304;2023-04-15T10:15:03;16.70;80.00
29939;DHT22;16799;50.844;5.304;2023-04-15T10:17:29;17.00;80.70
29939;DHT22;16799;50.844;5.304;2023-04-15T10:20:00;17.40;77.50
29939;DHT22;16799;50.844;5.304;2023-04-15T10:22:27;17.90;77.90
29939;DHT22;16799;50.844;5.304;2023-04-15T10:24:57;18.30;76.00
29939;DHT22;16799;50.844;5.304;2023-04-15T10:27:25;18.80;75.90
29939;DHT22;16799;50.844;5.304;2023-04-15T10:29:51;19.20;70.40
29939;DHT22;16799;50.844;5.304;2023-04-15T10:32:18;19.90;70.90
29939;DHT22;16799;50.844;5.304;2023-04-15T10:34:49;20.60;71.50
29939;DHT22;16799;50.844;5.304;2023-04-15T10:37:21;20.90;64.00
29939;DHT22;16799;50.844;5.304;2023-04-15T10:39:47;21.10;59.60
29939;DHT22;16799;50.844;5.304;2023-04-15T10:42:16;21.30;61.60
29939;DHT22;16799;50.844;5.304;2023-04-15T10:44:49;22.00;59.80
29939;DHT22;16799;50.844;5.304;2023-04-15T10:47:19;21.60;58.90
29939;DHT22;16799;50.844;5.304;2023-04-15T10:49:48;21.40;59.40
29939;DHT22;16799;50.844;5.304;2023-04-15T10:52:16;22.20;61.70
29939;DHT22;16799;50.844;5.304;2023-04-15T10:54:43;22.80;52.00
29939;DHT22;16799;50.844;5.304;2023-04-15T10:57:14;22.90;48.30
29939;DHT22;16799;50.844;5.304;2023-04-15T11:00:03;22.80;50.40
29939;DHT22;16799;50.844;5.304;2023-04-15T11:02:52;22.30;48.80
29939;DHT22;16799;50.844;5.304;2023-04-15T11:05:19;21.60;48.50
29939;DHT22;16799;50.844;5.304;2023-04-15T11:12:55;20.60;50.60
29939;DHT22;16799;50.844;5.304;2023-04-15T11:15:41;20.80;52.40
29939;DHT22;16799;50.844;5.304;2023-04-15T11:18:23;20.80;52.40
29939;DHT22;16799;50.844;5.304;2023-04-15T11:23:39;20.50;54.30
29939;DHT22;16799;50.844;5.304;2023-04-15T11:26:09;20.50;55.40
29939;DHT22;16799;50.844;5.304;2023-04-15T11:28:37;20.50;57.20
29939;DHT22;16799;50.844;5.304;2023-04-15T11:31:07;20.80;54.00
29939;DHT22;16799;50.844;5.304;2023-04-15T11:33:34;20.90;57.40
29939;DHT22;16799;50.844;5.304;2023-04-15T11:36:00;22.00;56.40
29939;DHT22;16799;50.844;5.304;2023-04-15T11:38:26;22.70;55.00
29939;DHT22;16799;50.844;5.304;2023-04-15T11:40:52;23.10;54.20
29939;DHT22;16799;50.844;5.304;2023-04-15T11:43:21;24.00;52.30
29939;DHT22;16799;50.844;5.304;2023-04-15T11:45:55;24.30;50.60
29939;DHT22;16799;50.844;5.304;2023-04-15T11:48:24;24.30;49.40
29939;DHT22;16799;50.844;5.304;2023-04-15T11:51:03;24.50;51.20
29939;DHT22;16799;50.844;5.304;2023-04-15T11:53:47;25.10;50.30
29939;DHT22;16799;50.844;5.304;2023-04-15T11:58:47;26.50;48.60
29939;DHT22;16799;50.844;5.304;2023-04-15T12:01:15;26.70;45.60
29939;DHT22;16799;50.844;5.304;2023-04-15T12:03:47;27.60;44.10
29939;DHT22;16799;50.844;5.304;2023-04-15T12:06:23;26.80;42.00
29939;DHT22;16799;50.844;5.304;2023-04-15T12:08:56;27.00;45.40
29939;DHT22;16799;50.844;5.304;2023-04-15T12:16:40;27.20;43.80
29939;DHT22;16799;50.844;5.304;2023-04-15T12:19:12;28.10;43.30
29939;DHT22;16799;50.844;5.304;2023-04-15T12:21:41;29.40;43.20
29939;DHT22;16799;50.844;5.304;2023-04-15T12:24:09;28.30;39.20
29939;DHT22;16799;50.844;5.304;2023-04-15T12:26:51;27.80;39.80
29939;DHT22;16799;50.844;5.304;2023-04-15T12:29:18;28.50;40.50
29939;DHT22;16799;50.844;5.304;2023-04-15T12:31:58;28.60;40.30
29939;DHT22;16799;50.844;5.304;2023-04-15T12:35:12;28.60;40.20
29939;DHT22;16799;50.844;5.304;2023-04-15T12:37:21;29.20;40.10
29939;DHT22;16799;50.844;5.304;2023-04-15T12:39:48;29.20;39.90
29939;DHT22;16799;50.844;5.304;2023-04-15T12:42:20;28.10;38.00
29939;DHT22;16799;50.844;5.304;2023-04-15T12:44:47;28.80;38.10
29939;DHT22;16799;50.844;5.304;2023-04-15T12:47:12;29.30;39.20
29939;DHT22;16799;50.844;5.304;2023-04-15T12:49:38;29.40;38.20
29939;DHT22;16799;50.844;5.304;2023-04-15T12:52:04;29.90;37.50
29939;DHT22;16799;50.844;5.304;2023-04-15T12:54:30;30.40;39.20
29939;DHT22;16799;50.844;5.304;2023-04-15T12:56:57;30.10;35.50
29939;DHT22;16799;50.844;5.304;2023-04-15T12:59:23;30.40;33.70
29939;DHT22;16799;50.844;5.304;2023-04-15T13:01:49;30.70;35.00
29939;DHT22;16799;50.844;5.304;2023-04-15T13:04:16;31.10;35.00
29939;DHT22;16799;50.844;5.304;2023-04-15T13:06:42;31.30;34.90
29939;DHT22;16799;50.844;5.304;2023-04-15T13:09:08;31.70;33.30
29939;DHT22;16799;50.844;5.304;2023-04-15T13:11:34;31.50;34.70
29939;DHT22;16799;50.844;5.304;2023-04-15T13:14:04;31.10;33.60
29939;DHT22;16799;50.844;5.304;2023-04-15T13:16:31;31.20;32.90
29939;DHT22;16799;50.844;5.304;2023-04-15T13:18:58;31.20;34.00
29939;DHT22;16799;50.844;5.304;2023-04-15T13:21:24;31.20;33.90
29939;DHT22;16799;50.844;5.304;2023-04-15T13:23:50;31.50;33.20
29939;DHT22;16799;50.844;5.304;2023-04-15T13:26:16;31.50;32.80
29939;DHT22;16799;50.844;5.304;2023-04-15T13:28:42;31.30;31.50
29939;DHT22;16799;50.844;5.304;2023-04-15T13:31:08;31.70;32.10
29939;DHT22;16799;50.844;5.304;2023-04-15T13:33:34;31.90;31.40
29939;DHT22;16799;50.844;5.304;2023-04-15T13:35:59;32.40;31.30
29939;DHT22;16799;50.844;5.304;2023-04-15T13:38:25;31.20;31.70
29939;DHT22;16799;50.844;5.304;2023-04-15T13:40:51;31.20;33.40
29939;DHT22;16799;50.844;5.304;2023-04-15T13:43:16;31.50;33.70
29939;DHT22;16799;50.844;5.304;2023-04-15T13:45:43;31.60;33.70
29939;DHT22;16799;50.844;5.304;2023-04-15T13:48:08;31.70;31.40
29939;DHT22;16799;50.844;5.304;2023-04-15T13:50:34;31.20;30.80
29939;DHT22;16799;50.844;5.304;2023-04-15T13:52:59;30.60;32.80
29939;DHT22;16799;50.844;5.304;2023-04-15T13:55:25;30.80;32.30
29939;DHT22;16799;50.844;5.304;2023-04-15T13:57:51;31.20;32.40
29939;DHT22;16799;50.844;5.304;2023-04-15T14:00:17;29.20;33.90
29939;DHT22;16799;50.844;5.304;2023-04-15T14:02:43;28.00;36.20
29939;DHT22;16799;50.844;5.304;2023-04-15T14:05:09;28.70;34.90
29939;DHT22;16799;50.844;5.304;2023-04-15T14:07:35;29.10;35.90
29939;DHT22;16799;50.844;5.304;2023-04-15T14:10:00;29.60;34.00
29939;DHT22;16799;50.844;5.304;2023-04-15T14:12:26;29.40;35.40
29939;DHT22;16799;50.844;5.304;2023-04-15T14:14:52;29.40;34.70
29939;DHT22;16799;50.844;5.304;2023-04-15T14:17:18;29.50;35.80
29939;DHT22;16799;50.844;5.304;2023-04-15T14:19:43;29.30;35.50
29939;DHT22;16799;50.844;5.304;2023-04-15T14:22:09;28.70;35.20
29939;DHT22;16799;50.844;5.304;2023-04-15T14:24:35;28.00;36.60
29939;DHT22;16799;50.844;5.304;2023-04-15T14:27:01;27.30;36.90
29939;DHT22;16799;50.844;5.304;2023-04-15T14:29:27;28.10;37.30
29939;DHT22;16799;50.844;5.304;2023-04-15T14:31:53;29.30;36.50
29939;DHT22;16799;50.844;5.304;2023-04-15T14:34:18;29.80;36.40
29939;DHT22;16799;50.844;5.304;2023-04-15T14:36:46;28.40;36.20
29939;DHT22;16799;50.844;5.304;2023-04-15T14:39:13;27.30;35.90
29939;DHT22;16799;50.844;5.304;2023-04-15T14:41:38;27.50;37.90
29939;DHT22;16799;50.844;5.304;2023-04-15T14:44:04;28.60;35.80
29939;DHT22;16799;50.844;5.304;2023-04-15T14:46:30;28.10;35.30
29939;DHT22;16799;50.844;5.304;2023-04-15T14:48:56;28.00;35.70
29939;DHT22;16799;50.844;5.304;2023-04-15T14:51:22;28.40;36.10
29939;DHT22;16799;50.844;5.304;2023-04-15T14:53:47;28.30;36.40
29939;DHT22;16799;50.844;5.304;2023-04-15T14:56:13;28.60;37.40
29939;DHT22;16799;50.844;5.304;2023-04-15T14:58:39;27.80;37.10
29939;DHT22;16799;50.844;5.304;2023-04-15T15:01:04;26.70;39.20
29939;DHT22;16799;50.844;5.304;2023-04-15T15:03:30;28.10;39.50
29939;DHT22;16799;50.844;5.304;2023-04-15T15:05:56;28.70;36.20
29939;DHT22;16799;50.844;5.304;2023-04-15T15:08:22;29.00;35.60
29939;DHT22;16799;50.844;5.304;2023-04-15T15:10:48;28.30;37.80
29939;DHT22;16799;50.844;5.304;2023-04-15T15:13:14;27.00;38.80
29939;DHT22;16799;50.844;5.304;2023-04-15T15:15:40;26.00;40.80
29939;DHT22;16799;50.844;5.304;2023-04-15T15:18:06;24.70;41.60
29939;DHT22;16799;50.844;5.304;2023-04-15T15:20:32;23.40;42.40
29939;DHT22;16799;50.844;5.304;2023-04-15T15:22:58;23.30;45.10
29939;DHT22;16799;50.844;5.304;2023-04-15T15:25:24;24.70;43.70
29939;DHT22;16799;50.844;5.304;2023-04-15T15:27:50;25.50;41.90
29939;DHT22;16799;50.844;5.304;2023-04-15T15:30:16;26.50;40.40
29939;DHT22;16799;50.844;5.304;2023-04-15T15:32:42;27.00;39.70
29939;DHT22;16799;50.844;5.304;2023-04-15T15:35:08;27.30;38.70
29939;DHT22;16799;50.844;5.304;2023-04-15T15:37:34;26.30;38.60
29939;DHT22;16799;50.844;5.304;2023-04-15T15:40:02;24.80;40.50
29939;DHT22;16799;50.844;5.304;2023-04-15T15:42:30;23.90;42.30
29939;DHT22;16799;50.844;5.304;2023-04-15T15:44:56;22.90;43.80
29939;DHT22;16799;50.844;5.304;2023-04-15T15:47:22;22.00;45.30
29939;DHT22;16799;50.844;5.304;2023-04-15T15:49:48;21.30;45.30
29939;DHT22;16799;50.844;5.304;2023-04-15T15:52:13;20.60;46.30